createdAt,value
2022-11-12T00:01:16.155Z,6.60
2022-11-12T00:06:12.535Z,5.90
2022-11-12T00:11:08.973Z,9.45
2022-11-12T00:16:05.772Z,7.75
2022-11-12T00:21:02.130Z,4.60
2022-11-12T00:26:00.071Z,6.00
2022-11-12T00:30:56.476Z,4.40
2022-11-12T00:35:52.831Z,6.97
2022-11-12T00:40:49.173Z,10.45
2022-11-12T00:45:45.513Z,9.48
2022-11-12T00:50:41.833Z,6.25
2022-11-12T00:55:38.254Z,4.97
2022-11-12T01:00:34.612Z,5.03
2022-11-12T01:05:33.109Z,6.90
2022-11-12T01:10:29.503Z,7.93
2022-11-12T01:15:25.855Z,9.07
2022-11-12T01:20:22.305Z,7.22
2022-11-12T01:25:18.693Z,7.18
2022-11-12T01:30:15.144Z,6.38
2022-11-12T01:35:11.472Z,5.50
2022-11-12T01:40:08.483Z,5.78
2022-11-12T01:45:18.047Z,5.35
2022-11-12T01:50:16.985Z,7.25
2022-11-12T01:55:18.862Z,5.05
2022-11-12T02:00:16.033Z,8.05
2022-11-12T02:05:13.936Z,4.53
2022-11-12T02:10:10.519Z,4.55
2022-11-12T02:15:07.474Z,3.95
2022-11-12T02:20:04.225Z,4.45
2022-11-12T02:25:00.562Z,7.57
2022-11-12T02:29:56.978Z,4.97
2022-11-12T02:34:53.322Z,5.00
2022-11-12T02:39:49.685Z,6.32
2022-11-12T02:44:46.215Z,9.57
2022-11-12T02:49:44.526Z,8.18
2022-11-12T02:54:40.878Z,3.35
2022-11-12T02:59:37.237Z,6.85
2022-11-12T03:04:33.611Z,2.60
2022-11-12T03:09:29.978Z,4.32
2022-11-12T03:14:26.362Z,6.38
2022-11-12T03:19:22.693Z,5.10
2022-11-12T03:24:19.022Z,5.32
2022-11-12T03:29:15.391Z,6.78
2022-11-12T03:34:11.892Z,5.68
2022-11-12T03:39:08.226Z,7.50
2022-11-12T03:44:04.683Z,7.15
2022-11-12T03:49:02.606Z,4.15
2022-11-12T03:53:58.925Z,4.82
2022-11-12T03:58:55.249Z,2.97
2022-11-12T04:03:51.577Z,3.55
2022-11-12T04:08:47.913Z,4.95
2022-11-12T04:13:47.698Z,5.15
2022-11-12T04:19:03.923Z,6.70
2022-11-12T04:24:00.270Z,5.47
2022-11-12T04:29:15.163Z,6.40
2022-11-12T04:34:29.913Z,6.60
2022-11-12T04:39:26.435Z,4.30
2022-11-12T04:44:41.284Z,4.88
2022-11-12T04:49:37.610Z,4.30
2022-11-12T04:54:34.227Z,4.82
2022-11-12T04:59:30.573Z,4.40
2022-11-12T05:04:28.789Z,6.13
2022-11-12T05:09:27.666Z,5.03
2022-11-12T05:19:21.022Z,5.05
2022-11-12T05:24:33.947Z,2.90
2022-11-12T05:29:33.713Z,3.13
2022-11-12T05:34:30.111Z,3.67
2022-11-12T05:39:26.647Z,4.07
2022-11-12T05:44:23.104Z,4.10
2022-11-12T05:49:19.413Z,6.28
2022-11-12T05:54:15.801Z,4.53
2022-11-12T05:59:13.577Z,4.22
2022-11-12T06:04:12.090Z,5.22
2022-11-12T06:09:09.225Z,4.93
2022-11-12T06:14:05.905Z,7.97
2022-11-12T06:19:02.377Z,5.40
2022-11-12T06:23:59.918Z,8.25
2022-11-12T06:28:57.064Z,4.15
2022-11-12T06:33:53.465Z,4.63
2022-11-12T06:38:49.844Z,3.85
2022-11-12T06:43:46.200Z,3.55
2022-11-12T06:48:42.875Z,4.75
2022-11-12T06:53:39.277Z,4.88
2022-11-12T06:58:36.447Z,3.80
2022-11-12T07:03:32.861Z,5.90
2022-11-12T07:08:29.633Z,4.30
2022-11-12T07:13:26.241Z,5.30
2022-11-12T07:18:22.715Z,5.00
2022-11-12T07:23:19.130Z,11.15
2022-11-12T07:28:15.477Z,4.25
2022-11-12T07:33:11.900Z,4.93
2022-11-12T07:38:08.267Z,6.53
2022-11-12T07:43:04.645Z,5.97
2022-11-12T07:48:01.012Z,9.25
2022-11-12T07:53:00.497Z,6.85
2022-11-12T07:58:00.110Z,6.85
2022-11-12T08:03:00.114Z,7.13
2022-11-12T08:07:57.063Z,10.35
2022-11-12T08:12:56.331Z,7.57
2022-11-12T08:17:52.706Z,9.38
2022-11-12T08:22:49.736Z,11.38
2022-11-12T08:27:46.131Z,9.32
2022-11-12T08:32:42.539Z,8.35
2022-11-12T08:37:39.075Z,8.45
2022-11-12T08:42:35.424Z,10.32
2022-11-12T08:47:31.798Z,8.40
2022-11-12T08:52:28.158Z,8.30
2022-11-12T08:57:24.611Z,9.57
2022-11-12T09:02:22.105Z,7.75
2022-11-12T09:07:47.965Z,7.05
2022-11-12T09:12:34.767Z,5.47
2022-11-12T09:17:32.493Z,3.95
2022-11-12T09:22:29.006Z,7.17
2022-11-12T09:27:29.022Z,4.88
2022-11-12T09:32:25.397Z,5.93
2022-11-12T09:37:21.736Z,6.45
2022-11-12T09:42:21.123Z,11.10
2022-11-12T09:47:23.630Z,8.02
2022-11-12T09:52:25.944Z,9.60
2022-11-12T09:57:22.317Z,7.45
2022-11-12T10:02:32.812Z,5.78
2022-11-12T10:07:46.302Z,7.15
2022-11-12T10:13:01.114Z,9.27
2022-11-12T10:18:06.539Z,9.82
2022-11-12T10:23:17.463Z,8.18
2022-11-12T10:28:31.843Z,6.00
2022-11-12T10:33:31.917Z,9.52
2022-11-12T10:38:29.128Z,7.53
2022-11-12T10:43:25.792Z,5.90
2022-11-12T10:48:28.565Z,5.32
2022-11-12T10:53:39.116Z,8.80
2022-11-12T10:58:35.521Z,6.70
2022-11-12T11:03:35.501Z,6.78
2022-11-12T11:08:36.486Z,8.13
2022-11-12T11:13:33.058Z,10.75
2022-11-12T11:18:32.506Z,13.02
2022-11-12T11:23:53.330Z,11.45
2022-11-12T11:29:27.191Z,13.68
2022-11-12T11:34:35.562Z,6.65
2022-11-12T11:45:21.828Z,6.63
2022-11-12T11:50:26.007Z,6.90
2022-11-12T11:55:43.872Z,7.18
2022-11-12T12:00:43.292Z,5.65
2022-11-12T12:06:06.945Z,7.68
2022-11-12T12:11:12.849Z,10.68
2022-11-12T12:16:17.211Z,6.82
2022-11-12T12:21:17.130Z,7.28
2022-11-12T12:26:24.579Z,5.53
2022-11-12T12:31:27.004Z,8.43
2022-11-12T12:36:39.600Z,7.22
2022-11-12T12:41:42.112Z,6.38
2022-11-12T12:46:53.176Z,6.97
2022-11-12T12:51:55.434Z,5.45
2022-11-12T12:56:52.495Z,5.43
2022-11-12T13:02:01.069Z,6.20
2022-11-12T13:06:57.552Z,7.43
2022-11-12T13:12:05.781Z,6.78
2022-11-12T13:22:17.046Z,5.28
2022-11-12T13:27:13.383Z,7.40
2022-11-12T13:32:30.979Z,5.93
2022-11-12T13:37:27.348Z,7.05
2022-11-12T13:42:42.180Z,7.13
2022-11-12T13:47:38.582Z,7.45
2022-11-12T13:52:35.789Z,9.07
2022-11-12T13:57:32.945Z,6.40
2022-11-12T14:02:29.371Z,9.30
2022-11-12T14:07:40.416Z,7.75
2022-11-12T14:13:03.502Z,7.03
2022-11-12T14:18:17.323Z,6.88
2022-11-12T14:23:24.454Z,7.25
2022-11-12T14:28:26.295Z,8.90
2022-11-12T14:33:26.659Z,4.85
2022-11-12T14:38:36.980Z,7.78
2022-11-12T14:43:36.851Z,7.18
2022-11-12T14:48:46.074Z,9.65
2022-11-12T14:53:51.137Z,8.85
2022-11-12T14:58:47.567Z,6.25
2022-11-12T15:03:44.047Z,7.13
2022-11-12T15:08:40.581Z,7.22
2022-11-12T15:13:42.576Z,11.43
2022-11-12T15:18:40.261Z,9.07
2022-11-12T15:23:36.747Z,8.07
2022-11-12T15:28:33.172Z,7.55
2022-11-12T15:33:29.827Z,7.20
2022-11-12T15:38:32.456Z,6.47
2022-11-12T15:43:32.038Z,9.52
2022-11-12T15:48:28.504Z,8.98
2022-11-12T15:53:25.079Z,16.83
2022-11-12T15:58:30.838Z,8.48
2022-11-12T16:03:27.666Z,10.27
2022-11-12T16:08:24.287Z,13.43
2022-11-12T16:13:32.045Z,14.95
2022-11-12T16:18:28.407Z,9.43
2022-11-12T16:23:25.197Z,10.00
2022-11-12T16:28:21.819Z,11.98
2022-11-12T16:33:18.183Z,11.98
2022-11-12T16:38:16.625Z,9.32
2022-11-12T16:43:13.013Z,9.95
2022-11-12T16:48:17.457Z,13.77
2022-11-12T16:53:13.991Z,14.27
2022-11-12T16:58:14.520Z,14.68
2022-11-12T17:03:14.077Z,13.80
2022-11-12T17:08:11.029Z,11.10
2022-11-12T17:13:11.905Z,12.35
2022-11-12T17:18:09.642Z,12.80
2022-11-12T17:23:06.364Z,10.30
2022-11-12T17:28:02.746Z,13.95
2022-11-12T17:32:59.853Z,16.95
2022-11-12T17:37:56.222Z,12.30
2022-11-12T17:42:53.770Z,12.23
2022-11-12T17:47:50.127Z,10.13
2022-11-12T17:52:46.500Z,11.50
2022-11-12T17:57:42.994Z,18.58
2022-11-12T18:02:39.502Z,16.42
2022-11-12T18:07:35.954Z,13.68
2022-11-12T18:12:32.431Z,17.48
2022-11-12T18:17:28.875Z,18.17
2022-11-12T18:22:26.984Z,17.33
2022-11-12T18:27:23.434Z,17.77
2022-11-12T18:32:19.900Z,12.45
2022-11-12T18:37:16.389Z,16.15
2022-11-12T18:42:12.954Z,15.38
2022-11-12T18:47:09.383Z,15.65
2022-11-12T18:52:05.793Z,14.98
2022-11-12T18:57:02.263Z,16.35
2022-11-12T19:01:59.207Z,14.68
2022-11-12T19:06:55.884Z,18.42
2022-11-12T19:11:52.311Z,18.00
2022-11-12T19:16:48.728Z,19.63
2022-11-12T19:21:45.145Z,19.05
2022-11-12T19:26:41.565Z,18.15
2022-11-12T19:31:37.907Z,19.60
2022-11-12T19:36:34.304Z,15.93
2022-11-12T19:41:30.720Z,15.38
2022-11-12T19:46:27.321Z,15.52
2022-11-12T19:51:24.621Z,15.32
2022-11-12T19:56:22.462Z,17.77
2022-11-12T20:01:19.540Z,19.57
2022-11-12T20:06:19.116Z,21.17
2022-11-12T20:11:16.264Z,24.80
2022-11-12T20:16:16.734Z,23.67
2022-11-12T20:21:14.787Z,15.93
2022-11-12T20:26:13.349Z,23.70
2022-11-12T20:36:09.033Z,18.20
2022-11-12T20:41:06.491Z,17.20
2022-11-12T20:46:02.891Z,13.38
2022-11-12T20:51:25.390Z,21.20
2022-11-12T20:56:24.477Z,17.38
2022-11-12T21:01:23.071Z,18.67
2022-11-12T21:06:22.625Z,20.23
2022-11-12T21:11:21.679Z,18.25
2022-11-12T21:16:18.157Z,15.25
2022-11-12T21:21:18.235Z,20.15
2022-11-12T21:26:17.193Z,21.58
2022-11-12T21:31:21.873Z,20.77
2022-11-12T21:36:20.101Z,16.70
2022-11-12T21:41:19.232Z,15.73
2022-11-12T21:46:23.339Z,18.73
2022-11-12T21:51:21.763Z,18.42
2022-11-12T21:56:18.993Z,18.55
2022-11-12T22:01:20.995Z,21.25
2022-11-12T22:06:18.848Z,21.60
2022-11-12T22:11:17.813Z,16.63
2022-11-12T22:16:23.152Z,19.83
2022-11-12T22:21:22.373Z,19.45
2022-11-12T22:26:25.401Z,14.52
2022-11-12T22:31:24.704Z,14.45
2022-11-12T22:36:23.265Z,21.50
2022-11-12T22:41:25.286Z,16.73
2022-11-12T22:46:26.711Z,15.32
2022-11-12T22:51:26.273Z,20.55
2022-11-12T22:56:24.355Z,19.58
2022-11-12T23:01:23.468Z,18.17
2022-11-12T23:06:20.141Z,16.52
2022-11-12T23:11:18.644Z,17.55
2022-11-12T23:16:17.695Z,16.80
2022-11-12T23:21:19.257Z,11.48
2022-11-12T23:26:24.598Z,15.27
2022-11-12T23:31:23.723Z,16.75
2022-11-12T23:36:21.530Z,14.98
2022-11-12T23:41:22.696Z,16.57
2022-11-12T23:46:19.348Z,14.23
2022-11-12T23:51:20.910Z,15.90
2022-11-12T23:56:18.843Z,15.10
